Terminal Aerodrome Forecast
Issued by NWS

Home | Current Version | Previous Version | Text Only | Print | Product List | Glossary Off
Versions: 1 2 3 4 5 6 7 8 9 10 11 12 13 14

000
FTUS43 KFGF 171730
TAFBJI
TAF
KBJI 171730Z 1718/1818 26005KT P6SM OVC040
     FM180000 32006KT P6SM BKN200
     FM181500 30011KT P6SM BKN025=

USA.gov is the U.S. government's official web portal to all federal, state and local government web resources and services.